LTAY/DNZ METAR and TAF weather

Enter ICAO airport designator
Station Type Date Time Source
LTAY METAR 2022/06/28 08:50 UTC NOAA

LTAY 280850Z 27008KT 230V300 9999 SCT035 BKN100 20/12 Q1014


Station Type Date Time Source
LTAY Decoded METAR 2022/06/28 08:50 UTC NOAA

Cardak, Turkey (LTAY) 37-47N 029-42E
Jun 28, 2022 - 04:50 AM EDT / 2022.06.28 0850 UTC
Wind: from the W (270 degrees) at 9 MPH (8 KT) (direction variable):0
Visibility: greater than 7 mile(s):0
Sky conditions: mostly cloudy
Temperature: 68 F (20 C)
Dew Point: 53 F (12 C)
Relative Humidity: 59%
Pressure (altimeter): 29.94 in. Hg (1014 hPa)
ob: LTAY 280850Z 27008KT 230V300 9999 SCT035 BKN100 20/12 Q1014
cycle: 9

Station Type Date Time Source
LTAY TAF UTC NOAA

Error!

Example: see airport list